Portada
METAR-TAF:

METAR-TAF

Aeropuertos :

Aeropuerto de Odense

Odense, Dinamarca

latitud: 55-29N, longitud: 010-20E, altitud: 17 m

Observación

El informe se hizo hace 9 horas y 16 minutos, a las 15:50 UTC
Viento 17 kt del oeste-suroeste con ráfagas de 27 kt
Temperatura 5°C
Humedad 93%
Presión 1009 hPa
Visibilidad 10 km o más
Escasas nubes a una altura de 2000 ft
Nubes dispersas a una altura de 4200 ft

METAR: EKOD 181550Z 24017G27KT 9999 FEW020 SCT042 05/04 Q1009

Hora: 02:06 (01:06 UTC)

Pronóstico

El informe se hizo hace 13 horas y 14 minutos, a las 11:52 UTC
Pronóstico válido del 18 a las 12 UTC al 18 a las 16 UTC
Viento 15 kt del oeste-suroeste
Visibilidad 10 km o más
Cielo nuboso a una altura de 2000 ft
Temporalmente
del 18 a las 12 UTC al 18 a las 16 UTC
Viento 20 kt del oeste-suroeste con ráfagas de 30 kt
Nubes dispersas a una altura de 2000 ft, Cumulonimbus.

TAF: EKOD 181152Z 1812/1816 24015KT 9999 BKN020 TEMPO 1812/1816 25020G30KT SCT020CB

Observaciones y pronósticos meteorológicos de más de 4000 aeropuertos (mensajes METAR y TAF).

Los puntos amarillos y rojos representan las estaciones disponibles.

Ponga el ratón en el punto deseado para ver el nombre de la estación.

Haga clic para ver las observaciones y los pronósticos meteorológicos.

Para cambiar el mapa : haga clic en los botones verdes con una cruz de color negro para hacer un zoom, en el botón verde con un guión para alejar o en las flechas verdes para mapas adyacentes.


METAR-TAF: